Ralston, Canada
Current Conditions -  °F | °C
As of 12:00 PM on Tuesday 21 Oct 2014 (Local Time) from CYXH Reporting Station
Broken Clouds Broken Clouds  
Wind Chill: 68°   Ceiling: 9500
Heat Index: 68°   Visibility: 30mi
Dew Point: 39°   Wind: 22mph
Humidity: 35%   Direction: 270°W
Pressure: 29.6"   Gusts: 32mph
Location:  50.25°N, 111.17°W
Report Text: CYXH 211800Z 27019G28KT 30SM BKN095 BKN290 20/04 A2960 RMK AC5CI2 SLP026 DENSITY ALT 3700FT
Loading
Personal Weather Stations






























Interactive Weather Map
Tropical Storm Tracking
New forecast layout! Learn more

10-Day Weather Forecast

Advertisements
Track Severe Weather on mobile